createdAt,value
2023-01-07T00:00:13.256Z, 43.85
2023-01-07T00:01:13.217Z, 43.78
2023-01-07T00:02:13.312Z, 43.72
2023-01-07T00:03:13.281Z, 43.74
2023-01-07T00:04:13.285Z, 43.68
2023-01-07T00:05:13.282Z, 43.67
2023-01-07T00:06:13.284Z, 43.57
2023-01-07T00:07:13.309Z, 43.53
2023-01-07T00:08:13.275Z, 43.59
2023-01-07T00:09:13.358Z, 43.51
2023-01-07T00:10:13.353Z, 43.53
2023-01-07T00:11:13.351Z, 43.47
2023-01-07T00:12:13.391Z, 43.47
2023-01-07T00:13:13.368Z, 43.40
2023-01-07T00:14:13.463Z, 43.36
2023-01-07T00:15:13.440Z, 43.33
2023-01-07T00:16:13.465Z, 43.28
2023-01-07T00:17:13.420Z, 43.28
2023-01-07T00:18:13.433Z, 43.17
2023-01-07T00:19:13.457Z, 43.10
2023-01-07T00:20:13.460Z, 43.09
2023-01-07T00:21:13.483Z, 43.07
2023-01-07T00:22:13.497Z, 43.08
2023-01-07T00:23:13.567Z, 43.01
2023-01-07T00:24:13.559Z, 42.99
2023-01-07T00:25:13.594Z, 42.95
2023-01-07T00:26:13.591Z, 42.90
2023-01-07T00:27:13.628Z, 42.93
2023-01-07T00:28:13.608Z, 42.90
2023-01-07T00:29:13.609Z, 42.83
2023-01-07T00:30:13.609Z, 42.85
2023-01-07T00:31:13.655Z, 42.83
2023-01-07T00:32:13.647Z, 42.79
2023-01-07T00:33:13.662Z, 42.71
2023-01-07T00:34:13.671Z, 42.69
2023-01-07T00:35:13.686Z, 42.65
2023-01-07T00:36:13.747Z, 42.62
2023-01-07T00:37:13.722Z, 42.65
2023-01-07T00:38:13.793Z, 42.64
2023-01-07T00:39:13.770Z, 42.57
2023-01-07T00:40:13.821Z, 42.60
2023-01-07T00:41:13.793Z, 42.55
2023-01-07T00:42:13.794Z, 42.50
2023-01-07T00:43:13.877Z, 42.49
2023-01-07T00:44:13.857Z, 42.37
2023-01-07T00:45:13.860Z, 42.38
2023-01-07T00:46:13.889Z, 42.41
2023-01-07T00:47:13.851Z, 42.37
2023-01-07T00:48:13.882Z, 42.34
2023-01-07T00:49:13.892Z, 42.33
2023-01-07T00:50:13.982Z, 42.31
2023-01-07T00:51:13.974Z, 42.30
2023-01-07T00:52:13.986Z, 42.27
2023-01-07T00:53:13.987Z, 42.24
2023-01-07T00:54:14.026Z, 42.21
2023-01-07T00:55:14.001Z, 42.13
2023-01-07T00:56:14.034Z, 42.13
2023-01-07T00:57:14.027Z, 42.14
2023-01-07T00:58:14.038Z, 42.13
2023-01-07T00:59:14.048Z, 42.07
2023-01-07T01:00:14.065Z, 42.05
2023-01-07T01:01:14.386Z, 41.98
2023-01-07T01:02:14.212Z, 41.98
2023-01-07T01:03:14.135Z, 41.96
2023-01-07T01:04:14.124Z, 41.89
2023-01-07T01:05:14.196Z, 41.89
2023-01-07T01:06:14.171Z, 41.85
2023-01-07T01:07:14.184Z, 41.78
2023-01-07T01:08:14.185Z, 41.78
2023-01-07T01:09:14.187Z, 41.83
2023-01-07T01:10:14.198Z, 41.79
2023-01-07T01:11:14.226Z, 41.76
2023-01-07T01:12:14.225Z, 41.75
2023-01-07T01:13:14.532Z, 41.69
2023-01-07T01:14:14.332Z, 41.67
2023-01-07T01:15:14.335Z, 41.66
2023-01-07T01:16:14.433Z, 41.59
2023-01-07T01:17:14.313Z, 41.54
2023-01-07T01:18:14.404Z, 41.52
2023-01-07T01:19:14.412Z, 41.49
2023-01-07T01:20:14.360Z, 41.47
2023-01-07T01:21:14.446Z, 41.44
2023-01-07T01:22:14.379Z, 41.44
2023-01-07T01:23:14.416Z, 41.41
2023-01-07T01:24:14.425Z, 41.39
2023-01-07T01:25:14.428Z, 41.34
2023-01-07T01:26:14.422Z, 41.36
2023-01-07T01:27:14.433Z, 41.33
2023-01-07T01:28:14.441Z, 41.36
2023-01-07T01:29:14.451Z, 41.36
2023-01-07T01:30:14.470Z, 41.34
2023-01-07T01:31:14.558Z, 41.27
2023-01-07T01:32:14.498Z, 41.27
2023-01-07T01:33:14.496Z, 41.21
2023-01-07T01:34:14.536Z, 41.19
2023-01-07T01:35:14.541Z, 41.19
2023-01-07T01:36:14.629Z, 41.15
2023-01-07T01:37:14.576Z, 41.12
2023-01-07T01:38:14.645Z, 41.14
2023-01-07T01:39:14.621Z, 41.12
2023-01-07T01:40:14.645Z, 41.05
2023-01-07T01:41:14.623Z, 41.03
2023-01-07T01:42:14.639Z, 41.01
2023-01-07T01:43:14.655Z, 41.02
2023-01-07T01:44:14.727Z, 41.00
2023-01-07T01:45:14.726Z, 40.85
2023-01-07T01:46:14.792Z, 40.86
2023-01-07T01:47:14.712Z, 40.83
2023-01-07T01:48:14.720Z, 40.79
2023-01-07T01:49:14.731Z, 40.77
2023-01-07T01:50:14.737Z, 40.78
2023-01-07T01:51:14.762Z, 40.74
2023-01-07T01:52:14.832Z, 40.76
2023-01-07T01:53:14.808Z, 40.71
2023-01-07T01:54:14.825Z, 40.66
2023-01-07T01:55:14.815Z, 40.71
2023-01-07T01:56:14.822Z, 40.64
2023-01-07T01:57:14.841Z, 40.65
2023-01-07T01:58:14.867Z, 40.64
2023-01-07T01:59:14.969Z, 40.63
2023-01-07T02:00:14.937Z, 40.54
2023-01-07T02:01:15.135Z, 40.55
2023-01-07T02:02:15.134Z, 40.55
2023-01-07T02:03:15.040Z, 40.51
2023-01-07T02:04:15.001Z, 40.47
2023-01-07T02:05:14.968Z, 40.46
2023-01-07T02:06:14.979Z, 40.45
2023-01-07T02:07:14.994Z, 40.40
2023-01-07T02:08:15.003Z, 40.44
2023-01-07T02:09:15.017Z, 40.41
2023-01-07T02:10:15.113Z, 40.36
2023-01-07T02:11:15.079Z, 40.41
2023-01-07T02:12:15.135Z, 40.34
2023-01-07T02:13:15.103Z, 40.36
2023-01-07T02:14:15.144Z, 40.33
2023-01-07T02:15:15.140Z, 40.25
2023-01-07T02:16:15.212Z, 40.23
2023-01-07T02:17:15.148Z, 40.24
2023-01-07T02:18:15.146Z, 40.20
2023-01-07T02:19:15.202Z, 40.19
2023-01-07T02:20:15.183Z, 40.18
2023-01-07T02:21:15.273Z, 40.14
2023-01-07T02:22:15.234Z, 40.13
2023-01-07T02:23:15.280Z, 40.06
2023-01-07T02:24:15.281Z, 39.99
2023-01-07T02:25:15.264Z, 39.94
2023-01-07T02:26:15.272Z, 39.88
2023-01-07T02:27:15.277Z, 39.90
2023-01-07T02:28:15.277Z, 39.89
2023-01-07T02:29:15.293Z, 39.87
2023-01-07T02:30:15.305Z, 39.83
2023-01-07T02:31:15.347Z, 39.86
2023-01-07T02:32:15.389Z, 39.86
2023-01-07T02:33:15.365Z, 39.83
2023-01-07T02:34:15.389Z, 39.85
2023-01-07T02:35:15.376Z, 39.87
2023-01-07T02:36:15.411Z, 39.85
2023-01-07T02:37:15.401Z, 39.84
2023-01-07T02:38:15.439Z, 39.76
2023-01-07T02:39:15.526Z, 39.76
2023-01-07T02:40:15.494Z, 39.65
2023-01-07T02:41:15.487Z, 39.61
2023-01-07T02:42:15.489Z, 39.66
2023-01-07T02:43:15.554Z, 39.59
2023-01-07T02:44:15.530Z, 39.60
2023-01-07T02:45:15.602Z, 39.53
2023-01-07T02:46:15.576Z, 39.57
2023-01-07T02:48:15.606Z, 39.56
2023-01-07T02:49:15.663Z, 39.52
2023-01-07T02:50:15.643Z, 39.50
2023-01-07T02:51:15.669Z, 39.46
2023-01-07T02:52:15.631Z, 39.41
2023-01-07T02:53:15.635Z, 39.39
2023-01-07T02:54:15.710Z, 39.38
2023-01-07T02:55:15.678Z, 39.36
2023-01-07T02:56:15.686Z, 39.38
2023-01-07T02:57:15.707Z, 39.39
2023-01-07T02:58:15.709Z, 39.39
2023-01-07T02:59:15.718Z, 39.36
2023-01-07T03:00:15.762Z, 39.36
2023-01-07T03:01:15.849Z, 39.28
2023-01-07T03:02:15.779Z, 39.33
2023-01-07T03:03:15.868Z, 39.28
2023-01-07T03:04:15.939Z, 39.26
2023-01-07T03:05:15.876Z, 39.25
2023-01-07T03:06:15.841Z, 39.20
2023-01-07T03:07:15.931Z, 39.19
2023-01-07T03:08:15.900Z, 39.16
2023-01-07T03:09:15.968Z, 39.09
2023-01-07T03:10:15.961Z, 39.13
2023-01-07T03:11:15.934Z, 39.13
2023-01-07T03:12:15.927Z, 39.10
2023-01-07T03:13:15.940Z, 39.04
2023-01-07T03:14:16.019Z, 39.01
2023-01-07T03:15:15.991Z, 39.02
2023-01-07T03:16:16.068Z, 38.98
2023-01-07T03:17:16.010Z, 38.94
2023-01-07T03:18:16.014Z, 38.91
2023-01-07T03:19:16.017Z, 38.91
2023-01-07T03:20:16.025Z, 38.87
2023-01-07T03:21:16.038Z, 38.90
2023-01-07T03:22:16.030Z, 38.86
2023-01-07T03:23:16.048Z, 38.87
2023-01-07T03:24:16.062Z, 38.89
2023-01-07T03:25:16.168Z, 38.86
2023-01-07T03:26:16.124Z, 38.75
2023-01-07T03:27:16.162Z, 38.75
2023-01-07T03:28:16.132Z, 38.83
2023-01-07T03:29:16.205Z, 38.73
2023-01-07T03:30:16.184Z, 38.70
2023-01-07T03:31:16.187Z, 38.73
2023-01-07T03:32:16.197Z, 38.73
2023-01-07T03:33:16.197Z, 38.69
2023-01-07T03:34:16.200Z, 38.63
2023-01-07T03:35:16.221Z, 38.58
2023-01-07T03:36:16.323Z, 38.60
2023-01-07T03:37:16.298Z, 38.58
2023-01-07T03:38:16.330Z, 38.58
2023-01-07T03:39:16.293Z, 38.56
2023-01-07T03:40:16.352Z, 38.47
2023-01-07T03:41:16.336Z, 38.45
2023-01-07T03:42:16.333Z, 38.38
2023-01-07T03:43:16.408Z, 38.39
2023-01-07T03:44:16.379Z, 38.37
2023-01-07T03:45:16.404Z, 38.38
2023-01-07T03:46:16.441Z, 38.43
2023-01-07T03:47:16.401Z, 38.41
2023-01-07T03:48:16.480Z, 38.37
2023-01-07T03:49:16.464Z, 38.31
2023-01-07T03:50:16.455Z, 38.29
2023-01-07T03:51:16.450Z, 38.25
2023-01-07T03:52:16.459Z, 38.27
2023-01-07T03:53:16.482Z, 38.19
2023-01-07T03:54:16.500Z, 38.19
2023-01-07T03:55:16.497Z, 38.21
2023-01-07T03:56:16.511Z, 38.20
2023-01-07T03:57:16.591Z, 38.22
2023-01-07T03:58:16.570Z, 38.17
2023-01-07T03:59:16.631Z, 38.10
2023-01-07T04:00:16.599Z, 38.17
2023-01-07T04:01:16.720Z, 38.09
2023-01-07T04:02:16.630Z, 38.07
2023-01-07T04:03:16.645Z, 38.13
2023-01-07T04:04:16.710Z, 38.13
2023-01-07T04:05:16.637Z, 38.15
2023-01-07T04:06:16.658Z, 38.13
2023-01-07T04:07:16.663Z, 38.04
2023-01-07T04:08:16.666Z, 38.03
2023-01-07T04:09:16.693Z, 38.00
2023-01-07T04:10:16.797Z, 37.96
2023-01-07T04:11:16.769Z, 38.01
2023-01-07T04:12:16.820Z, 38.02
2023-01-07T04:13:16.785Z, 37.94
2023-01-07T04:14:16.793Z, 37.96
2023-01-07T04:15:16.794Z, 37.93
2023-01-07T04:16:16.865Z, 37.93
2023-01-07T04:17:16.818Z, 37.88
2023-01-07T04:18:16.903Z, 37.81
2023-01-07T04:19:16.879Z, 37.84
2023-01-07T04:20:16.870Z, 37.81
2023-01-07T04:21:16.880Z, 37.77
2023-01-07T04:22:16.883Z, 37.75
2023-01-07T04:23:16.976Z, 37.79
2023-01-07T04:24:16.919Z, 37.73
2023-01-07T04:25:16.974Z, 37.69
2023-01-07T04:26:16.960Z, 37.65
2023-01-07T04:27:16.961Z, 37.63
2023-01-07T04:28:16.955Z, 37.62
2023-01-07T04:29:18.357Z, 37.58
2023-01-07T04:30:17.017Z, 37.59
2023-01-07T04:31:16.989Z, 38.13
2023-01-07T04:32:17.056Z, 39.44
2023-01-07T04:33:17.023Z, 39.78
2023-01-07T04:34:17.038Z, 39.80
2023-01-07T04:35:17.122Z, 39.76
2023-01-07T04:36:17.094Z, 39.68
2023-01-07T04:37:17.133Z, 39.56
2023-01-07T04:38:17.120Z, 39.38
2023-01-07T04:39:17.123Z, 39.07
2023-01-07T04:40:17.113Z, 38.70
2023-01-07T04:41:17.116Z, 38.26
2023-01-07T04:42:17.143Z, 37.68
2023-01-07T04:43:17.158Z, 36.96
2023-01-07T04:44:17.241Z, 36.22
2023-01-07T04:45:17.195Z, 35.46
2023-01-07T04:46:17.275Z, 34.62
2023-01-07T04:47:17.216Z, 33.47
2023-01-07T04:48:17.231Z, 31.98
2023-01-07T04:49:17.310Z, 30.28
2023-01-07T04:50:17.292Z, 28.59
2023-01-07T04:51:17.325Z, 26.99
2023-01-07T04:52:17.360Z, 31.38
2023-01-07T04:53:17.327Z, 37.29
2023-01-07T04:54:17.338Z, 41.19
2023-01-07T04:55:17.340Z, 40.73
2023-01-07T04:56:17.361Z, 38.70
2023-01-07T04:57:17.435Z, 37.10
2023-01-07T04:58:17.399Z, 35.75
2023-01-07T04:59:17.447Z, 34.52
2023-01-07T05:00:17.429Z, 33.44
2023-01-07T05:01:17.592Z, 32.57
2023-01-07T05:02:17.521Z, 31.75
2023-01-07T05:03:17.457Z, 30.96
2023-01-07T05:04:17.544Z, 29.94
2023-01-07T05:05:17.460Z, 28.79
2023-01-07T05:06:17.531Z, 28.05
2023-01-07T05:07:17.500Z, 27.81
2023-01-07T05:08:17.584Z, 29.87
2023-01-07T05:09:17.561Z, 36.88
2023-01-07T05:10:17.551Z, 42.60
2023-01-07T05:11:17.629Z, 45.79
2023-01-07T05:12:17.623Z, 45.36
2023-01-07T05:13:17.661Z, 44.42
2023-01-07T05:14:17.644Z, 43.78
2023-01-07T05:15:17.689Z, 43.07
2023-01-07T05:16:17.717Z, 42.23
2023-01-07T05:17:17.658Z, 41.48
2023-01-07T05:18:17.718Z, 40.83
2023-01-07T05:19:17.683Z, 40.18
2023-01-07T05:20:17.772Z, 39.53
2023-01-07T05:21:17.750Z, 38.89
2023-01-07T05:22:17.766Z, 38.29
2023-01-07T05:23:17.749Z, 37.74
2023-01-07T05:24:17.749Z, 37.25
2023-01-07T05:25:17.847Z, 36.77
2023-01-07T05:26:17.795Z, 36.32
2023-01-07T05:27:17.851Z, 35.86
2023-01-07T05:28:17.819Z, 35.42
2023-01-07T05:29:17.834Z, 34.99
2023-01-07T05:30:17.825Z, 34.59
2023-01-07T05:31:17.917Z, 34.18
2023-01-07T05:32:17.920Z, 37.38
2023-01-07T05:33:17.896Z, 45.88
2023-01-07T05:34:17.931Z, 49.85
2023-01-07T05:35:17.955Z, 48.89
2023-01-07T05:36:17.983Z, 47.27
2023-01-07T05:37:17.960Z, 46.11
2023-01-07T05:38:17.979Z, 45.39
2023-01-07T05:39:17.962Z, 44.88
2023-01-07T05:40:17.969Z, 44.33
2023-01-07T05:41:18.059Z, 43.87
2023-01-07T05:42:18.045Z, 43.45
2023-01-07T05:43:18.045Z, 43.00
2023-01-07T05:44:18.048Z, 42.55
2023-01-07T05:45:18.127Z, 42.14
2023-01-07T05:46:18.141Z, 41.75
2023-01-07T05:47:18.087Z, 41.37
2023-01-07T05:48:18.161Z, 41.01
2023-01-07T05:49:18.156Z, 40.67
2023-01-07T05:50:18.140Z, 40.32
2023-01-07T05:51:18.152Z, 39.99
2023-01-07T05:52:18.172Z, 39.68
2023-01-07T05:53:18.189Z, 39.38
2023-01-07T05:54:18.199Z, 39.08
2023-01-07T05:55:18.197Z, 38.79
2023-01-07T05:56:18.198Z, 38.47
2023-01-07T05:57:18.299Z, 38.21
2023-01-07T05:58:18.247Z, 37.94
2023-01-07T05:59:18.273Z, 37.70
2023-01-07T06:00:18.280Z, 37.46
2023-01-07T06:01:18.403Z, 37.18
2023-01-07T06:02:18.288Z, 36.76
2023-01-07T06:03:18.344Z, 36.25
2023-01-07T06:04:18.393Z, 35.82
2023-01-07T06:05:18.363Z, 35.44
2023-01-07T06:06:18.455Z, 35.12
2023-01-07T06:07:18.430Z, 38.92
2023-01-07T06:08:18.444Z, 47.31
2023-01-07T06:09:18.425Z, 51.49
2023-01-07T06:10:18.428Z, 51.31
2023-01-07T06:11:18.516Z, 49.70
2023-01-07T06:12:18.474Z, 48.09
2023-01-07T06:13:18.520Z, 46.80
2023-01-07T06:14:18.489Z, 46.03
2023-01-07T06:15:18.493Z, 45.36
2023-01-07T06:16:18.508Z, 44.74
2023-01-07T06:17:18.528Z, 44.26
2023-01-07T06:18:18.537Z, 44.00
2023-01-07T06:19:18.534Z, 43.72
2023-01-07T06:20:18.578Z, 43.36
2023-01-07T06:21:18.569Z, 43.09
2023-01-07T06:22:18.644Z, 43.45
2023-01-07T06:23:18.634Z, 45.89
2023-01-07T06:24:18.646Z, 49.29
2023-01-07T06:25:18.679Z, 52.86
2023-01-07T06:26:18.640Z, 56.95
2023-01-07T06:27:18.655Z, 60.78
2023-01-07T06:28:18.669Z, 67.21
2023-01-07T06:29:18.664Z, 52.26
2023-01-07T06:30:18.685Z, 52.68
2023-01-07T06:31:18.762Z, 53.89
2023-01-07T06:32:18.704Z, 55.53
2023-01-07T06:33:18.733Z, 58.35
2023-01-07T06:34:18.820Z, 61.86
2023-01-07T06:35:18.773Z, 66.30
2023-01-07T06:36:18.820Z, 53.49
2023-01-07T06:37:18.814Z, 54.15
2023-01-07T06:38:18.810Z, 55.24
2023-01-07T06:39:18.813Z, 57.27
2023-01-07T06:40:18.819Z, 58.95
2023-01-07T06:41:18.832Z, 60.13
2023-01-07T06:42:18.908Z, 60.91
2023-01-07T06:43:18.881Z, 61.26
2023-01-07T06:44:18.876Z, 61.52
2023-01-07T06:45:18.883Z, 61.70
2023-01-07T06:46:18.939Z, 61.73
2023-01-07T06:47:18.909Z, 61.73
2023-01-07T06:48:18.917Z, 61.69
2023-01-07T06:49:19.007Z, 61.69
2023-01-07T06:50:19.002Z, 61.64
2023-01-07T06:51:19.053Z, 61.61
2023-01-07T06:52:19.021Z, 61.56
2023-01-07T06:53:19.070Z, 61.40
2023-01-07T06:54:19.060Z, 61.23
2023-01-07T06:55:19.079Z, 61.06
2023-01-07T06:56:19.062Z, 60.93
2023-01-07T06:57:19.067Z, 60.76
2023-01-07T06:58:19.089Z, 60.65
2023-01-07T06:59:19.136Z, 60.44
2023-01-07T07:00:19.133Z, 60.29
2023-01-07T07:01:19.362Z, 60.08
2023-01-07T07:02:19.418Z, 59.94
2023-01-07T07:03:19.247Z, 59.78
2023-01-07T07:04:19.169Z, 59.60
2023-01-07T07:05:19.166Z, 59.44
2023-01-07T07:06:19.245Z, 59.26
2023-01-07T07:07:19.216Z, 59.09
2023-01-07T07:08:19.242Z, 58.95
2023-01-07T07:09:19.235Z, 58.80
2023-01-07T07:10:19.259Z, 58.62
2023-01-07T07:11:19.259Z, 58.47
2023-01-07T07:12:19.303Z, 58.37
2023-01-07T07:13:19.275Z, 58.23
2023-01-07T07:14:19.310Z, 58.05
2023-01-07T07:15:19.317Z, 57.95
2023-01-07T07:16:19.459Z, 57.84
2023-01-07T07:17:19.329Z, 57.69
2023-01-07T07:18:19.339Z, 57.47
2023-01-07T07:19:19.430Z, 57.28
2023-01-07T07:20:19.398Z, 57.24
2023-01-07T07:21:19.486Z, 57.12
2023-01-07T07:22:19.469Z, 56.87
2023-01-07T07:23:19.491Z, 56.74
2023-01-07T07:24:19.470Z, 56.67
2023-01-07T07:25:19.511Z, 56.57
2023-01-07T07:26:19.497Z, 56.41
2023-01-07T07:27:19.497Z, 56.40
2023-01-07T07:28:19.484Z, 56.20
2023-01-07T07:29:21.640Z, 56.12
2023-01-07T07:30:19.590Z, 56.03
2023-01-07T07:31:19.606Z, 55.96
2023-01-07T07:32:19.616Z, 55.78
2023-01-07T07:33:19.888Z, 55.66
2023-01-07T07:34:19.633Z, 55.56
2023-01-07T07:35:19.649Z, 55.49
2023-01-07T07:36:19.644Z, 55.33
2023-01-07T07:37:19.633Z, 55.22
2023-01-07T07:38:19.650Z, 55.18
2023-01-07T07:39:19.647Z, 55.10
2023-01-07T07:40:19.650Z, 54.95
2023-01-07T07:41:19.748Z, 54.79
2023-01-07T07:42:19.767Z, 54.74
2023-01-07T07:43:19.745Z, 54.70
2023-01-07T07:44:19.795Z, 54.51
2023-01-07T07:45:19.795Z, 54.35
2023-01-07T07:46:19.830Z, 54.31
2023-01-07T07:47:19.818Z, 54.29
2023-01-07T07:48:19.806Z, 54.13
2023-01-07T07:49:19.837Z, 54.03
2023-01-07T07:50:19.807Z, 53.87
2023-01-07T07:51:19.874Z, 53.87
2023-01-07T07:52:19.859Z, 53.72
2023-01-07T07:53:19.938Z, 53.62
2023-01-07T07:54:21.320Z, 53.56
2023-01-07T07:55:26.254Z, 53.53
2023-01-07T07:56:19.903Z, 53.45
2023-01-07T07:57:19.900Z, 53.31
2023-01-07T07:58:19.907Z, 53.20
2023-01-07T07:59:19.935Z, 53.23
2023-01-07T08:00:19.955Z, 53.10
2023-01-07T08:01:20.047Z, 53.00
2023-01-07T08:02:20.091Z, 52.91
2023-01-07T08:03:20.007Z, 52.87
2023-01-07T08:04:20.065Z, 52.87
2023-01-07T08:05:20.059Z, 52.82
2023-01-07T08:06:20.037Z, 52.65
2023-01-07T08:07:32.084Z, 52.48
2023-01-07T08:08:20.057Z, 52.54
2023-01-07T08:09:20.144Z, 52.50
2023-01-07T08:10:20.117Z, 52.45
2023-01-07T08:11:20.172Z, 52.34
2023-01-07T08:12:20.145Z, 52.31
2023-01-07T08:13:20.142Z, 52.23
2023-01-07T08:14:20.213Z, 52.14
2023-01-07T08:15:20.184Z, 52.05
2023-01-07T08:16:20.288Z, 51.93
2023-01-07T08:17:20.223Z, 51.85
2023-01-07T08:18:20.230Z, 51.77
2023-01-07T08:19:20.217Z, 51.67
2023-01-07T08:20:20.254Z, 51.59
2023-01-07T08:21:20.254Z, 51.53
2023-01-07T08:22:20.280Z, 51.50
2023-01-07T08:23:20.287Z, 51.47
2023-01-07T08:24:20.290Z, 51.46
2023-01-07T08:25:20.379Z, 51.34
2023-01-07T08:26:20.363Z, 51.40
2023-01-07T08:27:20.412Z, 51.29
2023-01-07T08:28:20.384Z, 51.19
2023-01-07T08:29:20.387Z, 51.16
2023-01-07T08:30:20.385Z, 51.09
2023-01-07T08:31:20.477Z, 51.04
2023-01-07T08:32:20.411Z, 50.99
2023-01-07T08:33:20.440Z, 50.98
2023-01-07T08:34:20.443Z, 50.89
2023-01-07T08:35:20.466Z, 50.82
2023-01-07T08:36:23.269Z, 50.72
2023-01-07T08:37:20.512Z, 50.68
2023-01-07T08:38:20.510Z, 50.61
2023-01-07T08:39:20.590Z, 50.48
2023-01-07T08:40:20.562Z, 50.50
2023-01-07T08:41:20.565Z, 50.43
2023-01-07T08:42:20.557Z, 50.48
2023-01-07T08:43:20.560Z, 50.38
2023-01-07T08:44:20.629Z, 50.35
2023-01-07T08:45:20.633Z, 50.24
2023-01-07T08:46:20.640Z, 50.21
2023-01-07T08:47:20.620Z, 50.08
2023-01-07T08:48:20.624Z, 50.04
2023-01-07T08:49:20.650Z, 49.99
2023-01-07T08:50:20.666Z, 49.85
2023-01-07T08:51:20.677Z, 49.76
2023-01-07T08:52:20.762Z, 49.79
2023-01-07T08:53:20.742Z, 49.77
2023-01-07T08:54:20.733Z, 49.70
2023-01-07T08:55:20.734Z, 49.64
2023-01-07T08:56:20.756Z, 49.55
2023-01-07T08:57:20.762Z, 49.53
2023-01-07T08:58:20.780Z, 49.53
2023-01-07T08:59:20.868Z, 49.45
2023-01-07T09:00:20.840Z, 49.39
2023-01-07T09:01:21.024Z, 49.35
2023-01-07T09:02:21.113Z, 49.23
2023-01-07T09:03:20.907Z, 49.18
2023-01-07T09:04:20.888Z, 49.16
2023-01-07T09:05:20.898Z, 49.11
2023-01-07T09:06:20.947Z, 49.00
2023-01-07T09:07:20.919Z, 49.01
2023-01-07T09:08:21.016Z, 48.96
2023-01-07T09:09:20.974Z, 48.99
2023-01-07T09:10:20.974Z, 48.89
2023-01-07T09:11:20.973Z, 48.90
2023-01-07T09:12:20.975Z, 48.85
2023-01-07T09:13:20.993Z, 48.83
2023-01-07T09:14:21.007Z, 48.75
2023-01-07T09:15:21.096Z, 48.59
2023-01-07T09:16:21.148Z, 48.55
2023-01-07T09:17:23.470Z, 48.52
2023-01-07T09:18:21.059Z, 48.58
2023-01-07T09:19:21.099Z, 48.52
2023-01-07T09:20:21.092Z, 48.37
2023-01-07T09:21:21.102Z, 48.38
2023-01-07T09:22:21.108Z, 48.34
2023-01-07T09:23:21.117Z, 48.28
2023-01-07T09:24:21.133Z, 48.29
2023-01-07T09:25:21.150Z, 48.26
2023-01-07T09:26:21.239Z, 48.26
2023-01-07T09:27:21.205Z, 48.23
2023-01-07T09:28:21.253Z, 48.13
2023-01-07T09:29:21.214Z, 48.05
2023-01-07T09:30:21.207Z, 48.02
2023-01-07T09:31:21.258Z, 47.97
2023-01-07T09:32:21.226Z, 48.33
2023-01-07T09:33:21.299Z, 50.76
2023-01-07T09:34:21.279Z, 54.84
2023-01-07T09:35:21.308Z, 59.23
2023-01-07T09:36:21.299Z, 70.15
2023-01-07T09:37:21.349Z, 60.64
2023-01-07T09:38:21.343Z, 52.90
2023-01-07T09:39:21.341Z, 53.88
2023-01-07T09:40:21.347Z, 55.34
2023-01-07T09:41:21.353Z, 57.69
2023-01-07T09:42:21.548Z, 60.54
2023-01-07T09:43:21.417Z, 68.39
2023-01-07T09:44:21.453Z, 55.40
2023-01-07T09:45:21.442Z, 53.59
2023-01-07T09:46:21.436Z, 54.60
2023-01-07T09:47:21.443Z, 55.29
2023-01-07T09:48:21.454Z, 55.55
2023-01-07T09:49:21.540Z, 55.68
2023-01-07T09:50:23.795Z, 55.71
2023-01-07T09:51:21.561Z, 55.69
2023-01-07T09:52:21.531Z, 55.68
2023-01-07T09:53:21.575Z, 55.56
2023-01-07T09:54:21.557Z, 55.42
2023-01-07T09:55:21.551Z, 55.26
2023-01-07T09:56:21.549Z, 55.19
2023-01-07T09:57:21.575Z, 55.03
2023-01-07T09:58:21.683Z, 54.75
2023-01-07T09:59:21.635Z, 54.65
2023-01-07T10:00:21.710Z, 54.46
2023-01-07T10:01:21.778Z, 54.31
2023-01-07T10:02:21.764Z, 54.11
2023-01-07T10:03:21.714Z, 53.93
2023-01-07T10:04:21.764Z, 53.73
2023-01-07T10:05:21.764Z, 53.55
2023-01-07T10:06:35.109Z, 53.37
2023-01-07T10:07:21.717Z, 53.13
2023-01-07T10:08:31.175Z, 52.97
2023-01-07T10:09:21.752Z, 52.77
2023-01-07T10:10:21.774Z, 52.60
2023-01-07T10:11:21.745Z, 52.41
2023-01-07T10:12:21.762Z, 52.30
2023-01-07T10:13:21.775Z, 52.12
2023-01-07T10:14:21.804Z, 51.90
2023-01-07T10:15:21.809Z, 51.72
2023-01-07T10:16:21.875Z, 51.56
2023-01-07T10:17:21.833Z, 51.38
2023-01-07T10:18:21.828Z, 51.24
2023-01-07T10:19:21.844Z, 51.03
2023-01-07T10:20:21.868Z, 50.86
2023-01-07T10:21:21.877Z, 50.76
2023-01-07T10:22:21.961Z, 50.58
2023-01-07T10:23:21.951Z, 50.36
2023-01-07T10:24:22.131Z, 50.24
2023-01-07T10:25:21.955Z, 50.09
2023-01-07T10:26:21.940Z, 49.92
2023-01-07T10:27:21.973Z, 49.80
2023-01-07T10:28:21.976Z, 49.69
2023-01-07T10:29:22.054Z, 49.57
2023-01-07T10:30:22.027Z, 49.44
2023-01-07T10:31:22.114Z, 49.28
2023-01-07T10:32:22.065Z, 49.19
2023-01-07T10:33:22.039Z, 49.03
2023-01-07T10:34:22.077Z, 48.92
2023-01-07T10:35:22.069Z, 48.85
2023-01-07T10:36:22.064Z, 48.72
2023-01-07T10:37:22.153Z, 48.56
2023-01-07T10:38:22.162Z, 48.40
2023-01-07T10:39:22.196Z, 48.31
2023-01-07T10:40:22.214Z, 48.22
2023-01-07T10:41:22.164Z, 48.07
2023-01-07T10:42:22.164Z, 48.06
2023-01-07T10:43:22.168Z, 47.98
2023-01-07T10:44:22.252Z, 47.81
2023-01-07T10:45:22.233Z, 47.77
2023-01-07T10:46:22.222Z, 47.65
2023-01-07T10:47:22.223Z, 47.57
2023-01-07T10:48:22.300Z, 47.47
2023-01-07T10:49:22.267Z, 47.38
2023-01-07T10:50:22.361Z, 47.23
2023-01-07T10:51:22.294Z, 47.20
2023-01-07T10:52:22.312Z, 47.08
2023-01-07T10:53:22.340Z, 46.99
2023-01-07T10:54:22.327Z, 46.91
2023-01-07T10:55:22.380Z, 46.85
2023-01-07T10:56:22.359Z, 46.82
2023-01-07T10:57:22.418Z, 46.72
2023-01-07T10:58:22.411Z, 46.68
2023-01-07T10:59:22.405Z, 46.55
2023-01-07T11:00:22.389Z, 46.43
2023-01-07T11:01:22.577Z, 47.05
2023-01-07T11:02:22.804Z, 48.22
2023-01-07T11:03:22.459Z, 48.34
2023-01-07T11:04:22.444Z, 47.92
2023-01-07T11:05:22.435Z, 47.03
2023-01-07T11:06:22.492Z, 45.99
2023-01-07T11:07:22.484Z, 44.97
2023-01-07T11:08:22.475Z, 43.95
2023-01-07T11:09:22.474Z, 42.89
2023-01-07T11:10:22.478Z, 41.82
2023-01-07T11:11:22.498Z, 40.78
2023-01-07T11:12:22.506Z, 39.89
2023-01-07T11:13:22.526Z, 39.12
2023-01-07T11:14:22.524Z, 38.53
2023-01-07T11:15:22.536Z, 38.17
2023-01-07T11:16:22.591Z, 37.91
2023-01-07T11:17:22.639Z, 37.60
2023-01-07T11:18:22.607Z, 37.14
2023-01-07T11:19:22.661Z, 36.14
2023-01-07T11:20:22.651Z, 34.54
2023-01-07T11:21:42.906Z, 32.60
2023-01-07T11:22:22.642Z, 30.70
2023-01-07T11:23:22.706Z, 30.21
2023-01-07T11:24:22.690Z, 36.22
2023-01-07T11:25:22.696Z, 42.14
2023-01-07T11:26:22.698Z, 45.36
2023-01-07T11:27:22.697Z, 43.86
2023-01-07T11:28:22.710Z, 42.13
2023-01-07T11:29:22.715Z, 41.16
2023-01-07T11:30:22.742Z, 40.16
2023-01-07T11:31:22.802Z, 39.93
2023-01-07T11:32:22.849Z, 39.79
2023-01-07T11:33:22.786Z, 39.56
2023-01-07T11:34:22.864Z, 39.35
2023-01-07T11:35:23.201Z, 39.23
2023-01-07T11:36:22.807Z, 39.12
2023-01-07T11:37:22.814Z, 39.00
2023-01-07T11:38:22.816Z, 38.89
2023-01-07T11:39:22.831Z, 38.76
2023-01-07T11:40:22.853Z, 38.66
2023-01-07T11:41:22.856Z, 38.53
2023-01-07T11:42:22.864Z, 38.42
2023-01-07T11:43:22.889Z, 38.32
2023-01-07T11:44:22.901Z, 38.19
2023-01-07T11:45:22.929Z, 38.05
2023-01-07T11:46:25.257Z, 37.96
2023-01-07T11:47:22.988Z, 37.83
2023-01-07T11:48:22.980Z, 37.69
2023-01-07T11:49:22.990Z, 37.58
2023-01-07T11:50:22.977Z, 37.46
2023-01-07T11:51:22.980Z, 37.34
2023-01-07T11:52:22.986Z, 37.23
2023-01-07T11:53:22.986Z, 37.09
2023-01-07T11:54:22.990Z, 36.94
2023-01-07T11:55:23.012Z, 36.80
2023-01-07T11:56:23.100Z, 36.69
2023-01-07T11:57:23.075Z, 36.59
2023-01-07T11:58:29.341Z, 36.45
2023-01-07T11:59:23.074Z, 36.33
2023-01-07T12:00:23.146Z, 36.22
2023-01-07T12:01:23.337Z, 36.11
2023-01-07T12:02:23.221Z, 36.00
2023-01-07T12:03:23.182Z, 35.91
2023-01-07T12:04:23.118Z, 35.80
2023-01-07T12:05:23.110Z, 35.69
2023-01-07T12:06:23.128Z, 35.60
2023-01-07T12:07:23.206Z, 35.49
2023-01-07T12:08:23.173Z, 35.38
2023-01-07T12:09:23.214Z, 35.27
2023-01-07T12:10:23.193Z, 35.24
2023-01-07T12:11:23.198Z, 35.15
2023-01-07T12:12:23.280Z, 35.08
2023-01-07T12:13:23.246Z, 35.01
2023-01-07T12:14:23.382Z, 34.93
2023-01-07T12:15:23.347Z, 34.84
2023-01-07T12:16:23.407Z, 34.76
2023-01-07T12:17:23.347Z, 34.68
2023-01-07T12:18:23.339Z, 34.59
2023-01-07T12:19:23.354Z, 34.53
2023-01-07T12:20:23.352Z, 34.47
2023-01-07T12:21:23.367Z, 34.41
2023-01-07T12:22:23.356Z, 34.36
2023-01-07T12:23:23.371Z, 34.25
2023-01-07T12:24:23.371Z, 34.18
2023-01-07T12:25:23.395Z, 34.10
2023-01-07T12:26:23.460Z, 34.05
2023-01-07T12:27:23.473Z, 33.97
2023-01-07T12:28:23.484Z, 33.91
2023-01-07T12:29:23.465Z, 33.83